Impacts METAR Board
IDs:

KLAS - Las Vegas/McCarran I, NV, US

Updated at: 1300 UTC 27 Feb 2021
Potential Impact None Slight Moderate High
Time 27/01Z 27/02Z 27/03Z 27/04Z 27/05Z 27/06Z 27/07Z 27/08Z 27/09Z 27/10Z 27/11Z 27/12Z 27/13Z
Temp67 65 63 59 61 57 60 58 58 57 54 50 50
Dewpt-8 -5 -5 -4 -2 2 1 5 8 8 11 14 14
Altim29.76 29.74 29.74 29.74 29.75 29.78 29.78 29.81 29.82 29.82 29.86 29.89 29.91
VIS10 10 10 10 10 10 10 10 10 10 10 10 10
CIG-- -- -- -- -- -- -- -- -- -- -- -- --
CoverFEWFEWFEWFEWFEWFEWFEWFEWFEWFEWFEWFEWFEW
FltCatVFRVFRVFRVFRVFRVFRVFRVFRVFRVFRVFRVFRVFR
WX--------------------------
WDir2202302003029003503403503403606020
WSpd12 11 10 4 3 0 17 14 13 20 18 12 20
WGst19 -- -- -- -- -- 27 21 24 27 25 21 25
Raw hourly METARs
KLAS 270056Z 22012G19KT 10SM FEW250 19/M22 A2976 RMK AO2 PK WND 18028/0012 SLP073 T01941222
KLAS 270156Z 23011KT 10SM FEW250 18/M21 A2974 RMK AO2 SLP065 T01831206
KLAS 270256Z 20010KT 10SM FEW250 17/M21 A2974 RMK AO2 SLP067 T01721206 55012
KLAS 270356Z 03004KT 10SM FEW250 15/M20 A2974 RMK AO2 SLP066 T01501200
KLAS 270456Z 29003KT 10SM FEW250 16/M19 A2975 RMK AO2 SLP067 T01611189
KLAS 270556Z 00000KT 10SM FEW250 14/M17 A2978 RMK AO2 SLP076 T01391167 10206 20139 53012
KLAS 270656Z 35017G27KT 10SM FEW250 16/M17 A2978 RMK AO2 PK WND 34028/0645 SLP076 T01561172
KLAS 270756Z 34014G21KT 10SM FEW250 14/M15 A2981 RMK AO2 PK WND 34030/0725 SLP085 T01441150 402060022
KLAS 270856Z 35013G24KT 10SM FEW250 14/M13 A2982 RMK AO2 PK WND 34027/0830 SLP087 T01441133 53013
KLAS 270956Z 34020G27KT 10SM FEW250 14/M13 A2982 RMK AO2 PK WND 34027/0954 SLP089 T01391133
KLAS 271056Z 36018G25KT 10SM FEW250 12/M12 A2986 RMK AO2 PK WND 35030/1011 SLP101 T01221117
KLAS 271156Z 06012G21KT 10SM FEW250 10/M10 A2989 RMK AO2 PK WND 36031/1118 WSHFT 1135 SLP112 T01001100 10156 20094 50022
KLAS 271256Z 02020G25KT 10SM FEW250 10/M10 A2991 RMK AO2 PK WND 02027/1224 SLP120 T01001100



Page loaded:  13:41 UTC  |   05:41 AM Pacific  |   06:41 AM Mountain  |   07:41 AM Central  |   08:41 AM Eastern

 

ADVISORIES

FORECASTS

FORECASTS

OBSERVATIONS

USER TOOLS

ABOUT US